Time;durP1;ratioP1;P1;durP2;ratioP2;P2;SDS_P1;SDS_P2;PMS_P1;PMS_P2;Temp;Humidity;BMP_temperature;BMP_pressure;BME280_temperature;BME280_humidity;BME280_pressure;Samples;Min_cycle;Max_cycle;Signal;HPM_P1;HPM_P2
2023/05/29 00:00:48;;;;;;;11.27;7.68;;;15.90;99.90;;;;;;5051213;28;20041;-76
2023/05/29 00:03:14;;;;;;;11.27;7.15;;;15.90;99.90;;;;;;5052592;28;20698;-76
2023/05/29 00:05:41;;;;;;;10.35;5.80;;;15.90;99.90;;;;;;5053391;28;20064;-76
2023/05/29 00:08:08;;;;;;;11.18;5.30;;;15.90;99.90;;;;;;5050999;28;20073;-76
2023/05/29 00:10:37;;;;;;;11.00;5.40;;;15.80;99.90;;;;;;5055588;28;20041;-76
2023/05/29 00:13:03;;;;;;;10.60;5.57;;;15.80;99.90;;;;;;5051954;28;20053;-76
2023/05/29 00:15:33;;;;;;;7.95;5.30;;;15.70;99.90;;;;;;5051656;28;20690;-76
2023/05/29 00:18:01;;;;;;;9.95;4.90;;;15.70;99.90;;;;;;5050816;28;20045;-75
2023/05/29 00:20:28;;;;;;;8.45;5.20;;;15.70;99.90;;;;;;5053406;28;20045;-76
2023/05/29 00:22:55;;;;;;;11.27;6.20;;;15.60;99.90;;;;;;5052680;28;20076;-76
2023/05/29 00:25:22;;;;;;;22.25;11.35;;;15.60;99.90;;;;;;5048810;28;20132;-76
2023/05/29 00:27:48;;;;;;;16.55;10.13;;;15.60;99.90;;;;;;5050921;28;20133;-76
2023/05/29 00:30:15;;;;;;;12.80;7.82;;;15.50;99.90;;;;;;5049946;28;20132;-75
2023/05/29 00:32:42;;;;;;;10.23;4.95;;;15.50;99.90;;;;;;5051341;28;20512;-76
2023/05/29 00:35:10;;;;;;;8.88;4.90;;;15.50;99.90;;;;;;5052944;28;20421;-75
2023/05/29 00:37:37;;;;;;;8.52;5.05;;;15.50;99.90;;;;;;5050859;28;20045;-75
2023/05/29 00:40:04;;;;;;;7.53;4.50;;;15.40;99.90;;;;;;5048585;28;20048;-75
2023/05/29 00:42:31;;;;;;;9.48;4.85;;;15.40;99.90;;;;;;5050532;28;20452;-76
2023/05/29 00:44:57;;;;;;;10.13;6.28;;;15.30;99.90;;;;;;5050553;28;20056;-76
2023/05/29 00:47:25;;;;;;;11.88;6.22;;;15.30;99.90;;;;;;5050739;28;20092;-76
2023/05/29 00:49:55;;;;;;;8.25;4.65;;;15.30;99.90;;;;;;5052889;28;20079;-76
2023/05/29 00:52:22;;;;;;;8.07;4.82;;;15.30;99.90;;;;;;5052102;28;20084;-76
2023/05/29 00:54:49;;;;;;;10.32;4.38;;;15.20;99.90;;;;;;5048107;28;20095;-75
2023/05/29 00:57:17;;;;;;;9.00;4.22;;;15.20;99.90;;;;;;5049324;28;20088;-76
2023/05/29 00:59:45;;;;;;;8.63;4.43;;;15.20;99.90;;;;;;5052443;28;20046;-76
2023/05/29 01:02:14;;;;;;;10.07;6.10;;;15.20;99.90;;;;;;5064767;28;20045;-76
2023/05/29 01:04:41;;;;;;;9.48;5.30;;;15.10;99.90;;;;;;5052361;28;20131;-75
2023/05/29 01:07:09;;;;;;;9.88;4.63;;;15.10;99.90;;;;;;5051702;28;20099;-76
2023/05/29 01:09:36;;;;;;;8.98;4.53;;;15.10;99.90;;;;;;5050030;28;20451;-76
2023/05/29 01:12:07;;;;;;;6.72;4.60;;;15.10;99.90;;;;;;5049369;28;20049;-75
2023/05/29 01:15:12;;;;;;;10.93;5.55;;;15.00;99.90;;;;;;5051954;28;20578;-76
2023/05/29 01:18:08;;;;;;;8.65;4.82;;;15.00;99.90;;;;;;5049739;28;20081;-76
2023/05/29 01:21:08;;;;;;;7.13;4.65;;;15.00;99.90;;;;;;5051885;28;20420;-76
2023/05/29 01:23:51;;;;;;;;;;;15.00;99.90;;;;;;5049905;28;20048;-76
2023/05/29 01:26:36;;;;;;;13.10;6.45;;;14.90;99.90;;;;;;5038343;28;19956;-74
2023/05/29 01:29:06;;;;;;;12.73;8.15;;;14.90;99.90;;;;;;5051059;28;20073;-75
2023/05/29 01:31:35;;;;;;;15.35;8.13;;;14.80;99.90;;;;;;5046728;28;20071;-76
2023/05/29 01:34:02;;;;;;;12.65;5.50;;;14.80;99.90;;;;;;5051464;28;20603;-75
2023/05/29 01:36:30;;;;;;;10.82;6.28;;;14.80;99.90;;;;;;5051984;28;20041;-76
2023/05/29 01:38:58;;;;;;;10.80;5.47;;;14.80;99.90;;;;;;5050162;28;20079;-75
2023/05/29 01:41:26;;;;;;;13.13;5.30;;;14.70;99.90;;;;;;5048246;28;20095;-76
2023/05/29 01:43:53;;;;;;;9.68;4.60;;;14.70;99.90;;;;;;5051666;28;20080;-75
2023/05/29 01:46:21;;;;;;;7.35;4.32;;;14.70;99.90;;;;;;5048124;28;20128;-76
2023/05/29 01:48:48;;;;;;;8.60;4.65;;;14.70;99.90;;;;;;5046479;28;20519;-75
2023/05/29 01:51:15;;;;;;;11.30;5.20;;;14.70;99.90;;;;;;5050512;28;20168;-76
2023/05/29 01:53:44;;;;;;;9.40;4.97;;;14.60;99.90;;;;;;5051263;28;20566;-76
2023/05/29 01:56:11;;;;;;;7.78;4.72;;;14.60;99.90;;;;;;5045230;28;20406;-75
2023/05/29 01:58:39;;;;;;;8.27;4.45;;;14.60;99.90;;;;;;5051078;28;20091;-76
2023/05/29 02:01:07;;;;;;;8.00;4.72;;;14.50;99.90;;;;;;5047800;28;20045;-76
2023/05/29 02:03:35;;;;;;;8.85;5.10;;;14.50;99.90;;;;;;5051132;28;20131;-76
2023/05/29 02:06:01;;;;;;;10.25;5.57;;;14.50;99.90;;;;;;5051205;28;20048;-76
2023/05/29 02:08:28;;;;;;;11.23;4.95;;;14.50;99.90;;;;;;5047701;28;20136;-76
2023/05/29 02:10:55;;;;;;;7.25;4.40;;;14.50;99.90;;;;;;5047017;28;20144;-76
2023/05/29 02:13:22;;;;;;;11.88;5.90;;;14.40;99.90;;;;;;5050802;28;20051;-76
2023/05/29 02:15:49;;;;;;;8.43;5.10;;;14.40;99.90;;;;;;5047701;28;20135;-76
2023/05/29 02:18:17;;;;;;;13.85;5.90;;;14.30;99.90;;;;;;5047164;28;20041;-76
2023/05/29 02:20:44;;;;;;;9.48;4.88;;;14.40;99.90;;;;;;5051312;28;20468;-76
2023/05/29 02:23:11;;;;;;;9.60;5.30;;;14.30;99.90;;;;;;5047986;28;20052;-75
2023/05/29 02:25:38;;;;;;;13.27;6.25;;;14.20;99.90;;;;;;5047455;28;20103;-76
2023/05/29 02:28:05;;;;;;;12.40;5.78;;;14.20;99.90;;;;;;5049850;28;20059;-76
2023/05/29 02:30:32;;;;;;;11.80;5.72;;;14.10;99.90;;;;;;5048361;28;20654;-75
2023/05/29 02:32:59;;;;;;;7.35;4.55;;;14.10;99.90;;;;;;5050162;28;20406;-76
2023/05/29 02:35:26;;;;;;;10.75;5.18;;;14.10;99.90;;;;;;5053512;28;20049;-76
2023/05/29 02:37:53;;;;;;;10.30;5.25;;;14.00;99.90;;;;;;5046834;28;20076;-75
2023/05/29 02:40:20;;;;;;;11.32;5.32;;;14.00;99.90;;;;;;5044720;28;20084;-76
2023/05/29 02:42:47;;;;;;;12.35;5.32;;;14.00;99.90;;;;;;5050256;28;20045;-76
2023/05/29 02:45:14;;;;;;;8.07;5.03;;;13.90;99.90;;;;;;5047455;28;20112;-75
2023/05/29 02:47:40;;;;;;;8.18;4.80;;;13.90;99.90;;;;;;5049471;28;20084;-76
2023/05/29 02:50:08;;;;;;;9.80;4.85;;;13.90;99.90;;;;;;5050733;28;20095;-75
2023/05/29 02:52:36;;;;;;;8.60;5.28;;;13.80;99.90;;;;;;5050921;28;20475;-76
2023/05/29 02:55:05;;;;;;;11.98;5.85;;;13.80;99.90;;;;;;5044743;28;20056;-76
2023/05/29 02:57:32;;;;;;;12.25;6.07;;;13.80;99.90;;;;;;5049286;28;20044;-76
2023/05/29 03:00:00;;;;;;;8.32;5.07;;;13.80;99.90;;;;;;5047682;28;20080;-76
2023/05/29 03:02:27;;;;;;;10.73;5.72;;;13.80;99.90;;;;;;5048094;28;20041;-76
2023/05/29 03:04:54;;;;;;;8.80;4.93;;;13.70;99.90;;;;;;5049433;28;20053;-75
2023/05/29 03:07:21;;;;;;;8.80;4.95;;;13.70;99.90;;;;;;5049930;28;20545;-75
2023/05/29 03:09:47;;;;;;;9.70;5.85;;;13.70;99.90;;;;;;5049881;28;20486;-75
2023/05/29 03:12:14;;;;;;;11.18;4.75;;;13.70;99.90;;;;;;5051435;28;20576;-76
2023/05/29 03:14:41;;;;;;;9.63;5.57;;;13.60;99.90;;;;;;5052424;28;21115;-75
2023/05/29 03:17:07;;;;;;;7.72;4.90;;;13.60;99.90;;;;;;5051864;28;20095;-75
2023/05/29 03:19:34;;;;;;;8.27;4.60;;;13.60;99.90;;;;;;5054556;28;20092;-75
2023/05/29 03:22:01;;;;;;;7.93;5.00;;;13.60;99.90;;;;;;5051801;28;20128;-75
2023/05/29 03:24:28;;;;;;;11.88;6.40;;;13.60;99.90;;;;;;5049828;28;20084;-75
2023/05/29 03:26:55;;;;;;;7.78;5.10;;;13.50;99.90;;;;;;5051767;28;20049;-75
2023/05/29 03:29:22;;;;;;;9.95;5.68;;;13.50;99.90;;;;;;5052276;28;20046;-75
2023/05/29 03:31:49;;;;;;;7.80;5.20;;;13.50;99.90;;;;;;5052309;28;20052;-76
2023/05/29 03:34:16;;;;;;;8.10;5.07;;;13.50;99.90;;;;;;5054248;28;20049;-76
2023/05/29 03:36:43;;;;;;;7.05;4.85;;;13.50;99.90;;;;;;5053292;28;20539;-74
2023/05/29 03:39:10;;;;;;;10.30;5.53;;;13.50;99.90;;;;;;5049309;28;20102;-76
2023/05/29 03:41:36;;;;;;;10.38;5.53;;;13.40;99.90;;;;;;5051174;28;20124;-76
2023/05/29 03:44:03;;;;;;;9.68;5.30;;;13.50;99.90;;;;;;5052657;28;20045;-75
2023/05/29 03:46:31;;;;;;;9.45;5.18;;;13.40;99.90;;;;;;5049090;28;20129;-76
2023/05/29 03:48:58;;;;;;;10.40;4.95;;;13.40;99.90;;;;;;5053465;28;20053;-76
2023/05/29 03:51:25;;;;;;;8.60;4.97;;;13.40;99.90;;;;;;5054161;28;20099;-76
2023/05/29 03:53:51;;;;;;;9.00;4.88;;;13.40;99.90;;;;;;5044224;28;20136;-76
2023/05/29 03:56:18;;;;;;;11.75;4.88;;;13.40;99.90;;;;;;5050251;28;20574;-76
2023/05/29 03:58:45;;;;;;;9.27;4.95;;;13.40;99.90;;;;;;5053079;28;20110;-75
2023/05/29 04:01:11;;;;;;;11.32;5.78;;;13.40;99.90;;;;;;5050356;28;20135;-76
2023/05/29 04:03:38;;;;;;;7.68;5.05;;;13.30;99.90;;;;;;5052509;28;20134;-76
2023/05/29 04:06:06;;;;;;;7.55;4.65;;;13.30;99.90;;;;;;5053181;28;20508;-75
2023/05/29 04:08:33;;;;;;;9.68;4.85;;;13.30;99.90;;;;;;5047248;28;20084;-76
2023/05/29 04:10:59;;;;;;;8.60;4.85;;;13.30;99.90;;;;;;5050431;28;20089;-76
2023/05/29 04:13:26;;;;;;;11.13;5.05;;;13.30;99.90;;;;;;5052294;28;20051;-76
2023/05/29 04:15:54;;;;;;;10.25;4.65;;;13.40;99.90;;;;;;5046887;28;20080;-76
2023/05/29 04:18:21;;;;;;;8.60;4.50;;;13.40;99.90;;;;;;5052259;28;20493;-76
2023/05/29 04:20:47;;;;;;;11.68;4.70;;;13.40;99.90;;;;;;5052062;28;20071;-76
2023/05/29 04:23:14;;;;;;;11.05;5.50;;;13.40;99.90;;;;;;5046151;28;20088;-76
2023/05/29 04:25:41;;;;;;;7.38;5.03;;;13.40;99.90;;;;;;5048938;28;20076;-76
2023/05/29 04:28:10;;;;;;;9.13;4.68;;;13.40;99.90;;;;;;5050862;28;20526;-76
2023/05/29 04:30:38;;;;;;;7.82;4.57;;;13.40;99.90;;;;;;5050454;28;20053;-75
2023/05/29 04:33:05;;;;;;;9.73;5.30;;;13.40;99.90;;;;;;5052761;28;20476;-76
2023/05/29 04:35:32;;;;;;;11.77;5.68;;;13.40;99.90;;;;;;5053157;28;20409;-76
2023/05/29 04:37:59;;;;;;;9.52;5.28;;;13.40;99.90;;;;;;5047558;28;20587;-75
2023/05/29 04:40:26;;;;;;;10.13;4.90;;;13.40;99.90;;;;;;5048149;28;20045;-75
2023/05/29 04:42:53;;;;;;;10.20;5.28;;;13.50;99.90;;;;;;5052612;28;20041;-76
2023/05/29 04:45:21;;;;;;;9.98;4.78;;;13.50;99.90;;;;;;5048698;28;20525;-76
2023/05/29 04:47:47;;;;;;;11.85;5.82;;;13.50;99.90;;;;;;5050492;28;20080;-76
2023/05/29 04:50:16;;;;;;;9.43;4.95;;;13.60;99.90;;;;;;5049269;28;20180;-76
2023/05/29 04:52:43;;;;;;;11.65;5.18;;;13.60;99.90;;;;;;5049410;28;20084;-76
2023/05/29 04:55:10;;;;;;;8.40;4.40;;;13.70;99.90;;;;;;5047236;28;20052;-76
2023/05/29 04:57:37;;;;;;;11.20;5.47;;;13.80;99.90;;;;;;5047758;28;20133;-76
2023/05/29 05:00:09;;;;;;;9.07;5.35;;;13.90;99.90;;;;;;5050132;28;20076;-76
2023/05/29 05:02:36;;;;;;;8.57;4.65;;;14.00;99.90;;;;;;5049721;28;20124;-76
2023/05/29 05:05:03;;;;;;;9.65;5.30;;;14.20;99.90;;;;;;5052471;28;20445;-76
2023/05/29 05:07:30;;;;;;;9.60;5.20;;;14.30;99.90;;;;;;5044838;28;20076;-76
2023/05/29 05:09:57;;;;;;;11.73;5.35;;;14.40;99.90;;;;;;5048504;28;20102;-76
2023/05/29 05:12:24;;;;;;;8.73;5.70;;;14.50;99.90;;;;;;5051121;28;20041;-76
2023/05/29 05:14:50;;;;;;;13.05;4.60;;;14.70;99.90;;;;;;5050516;28;20132;-76
2023/05/29 05:17:17;;;;;;;11.48;5.15;;;14.80;99.90;;;;;;5049110;28;20160;-76
2023/05/29 05:19:44;;;;;;;8.68;5.60;;;14.90;99.90;;;;;;5052320;28;20080;-76
2023/05/29 05:22:10;;;;;;;8.45;5.00;;;15.00;99.90;;;;;;5050200;28;20522;-76
2023/05/29 05:24:37;;;;;;;7.20;5.07;;;15.10;99.90;;;;;;5044984;28;20085;-76
2023/05/29 05:27:05;;;;;;;12.30;5.65;;;15.20;99.90;;;;;;5049530;28;20123;-76
2023/05/29 05:29:31;;;;;;;11.45;5.95;;;15.30;99.90;;;;;;5046875;28;20095;-76
2023/05/29 05:31:58;;;;;;;14.00;5.72;;;15.40;99.90;;;;;;5047901;28;20087;-76
2023/05/29 05:34:25;;;;;;;9.07;5.57;;;15.50;99.90;;;;;;5049961;28;20048;-76
2023/05/29 05:36:52;;;;;;;7.82;5.13;;;15.50;99.90;;;;;;5049465;28;20067;-76
2023/05/29 05:39:19;;;;;;;8.98;5.50;;;15.50;99.90;;;;;;5044746;28;20107;-76
2023/05/29 05:41:45;;;;;;;11.93;6.78;;;15.60;99.90;;;;;;5050839;28;20052;-76
2023/05/29 05:44:12;;;;;;;10.82;6.63;;;15.60;99.90;;;;;;5050043;28;20390;-76
2023/05/29 05:46:39;;;;;;;8.43;5.60;;;15.60;99.90;;;;;;5050659;28;21175;-76
2023/05/29 05:49:06;;;;;;;12.55;5.45;;;15.60;99.90;;;;;;5050879;28;20464;-76
2023/05/29 05:51:32;;;;;;;14.68;5.78;;;15.60;99.90;;;;;;5047797;28;20091;-76
2023/05/29 05:53:59;;;;;;;11.05;6.30;;;15.60;99.90;;;;;;5046335;28;20077;-76
2023/05/29 05:56:26;;;;;;;13.13;7.10;;;15.60;99.90;;;;;;5048856;28;20077;-76
2023/05/29 05:58:53;;;;;;;14.15;6.88;;;15.70;99.90;;;;;;5048147;28;20103;-76
2023/05/29 06:01:20;;;;;;;14.15;7.28;;;15.70;99.90;;;;;;5048965;28;20505;-76
2023/05/29 06:03:46;;;;;;;11.25;6.25;;;15.70;99.90;;;;;;5040174;28;20058;-76
2023/05/29 06:06:14;;;;;;;10.70;6.07;;;15.70;99.90;;;;;;5047544;28;20536;-76
2023/05/29 06:08:41;;;;;;;10.68;6.32;;;15.70;99.90;;;;;;5044239;28;20048;-77
2023/05/29 06:11:08;;;;;;;11.50;6.45;;;15.70;99.90;;;;;;5049244;28;20053;-76
2023/05/29 06:13:34;;;;;;;11.00;6.07;;;15.70;99.90;;;;;;5051026;28;20049;-76
2023/05/29 06:16:01;;;;;;;14.88;7.30;;;15.70;99.90;;;;;;5048917;28;20500;-76
2023/05/29 06:18:28;;;;;;;14.20;7.07;;;15.70;99.90;;;;;;5048036;28;20413;-76
2023/05/29 06:20:56;;;;;;;11.30;7.15;;;15.70;99.90;;;;;;5051114;28;20072;-76
2023/05/29 06:23:23;;;;;;;12.98;7.07;;;15.70;99.90;;;;;;5040944;28;20041;-76
2023/05/29 06:25:50;;;;;;;11.85;6.72;;;15.70;99.90;;;;;;5047941;28;20107;-76
2023/05/29 06:28:17;;;;;;;11.82;7.00;;;15.70;99.90;;;;;;5050089;28;20135;-75
2023/05/29 06:30:43;;;;;;;9.38;5.78;;;15.70;99.90;;;;;;5047613;28;20052;-76
2023/05/29 06:33:15;;;;;;;12.82;6.13;;;15.80;99.90;;;;;;5050560;28;20092;-76
2023/05/29 06:35:41;;;;;;;13.18;6.10;;;15.80;99.90;;;;;;5049830;28;20096;-76
2023/05/29 06:38:08;;;;;;;10.85;5.82;;;15.80;99.90;;;;;;5039049;28;20041;-75
2023/05/29 06:40:35;;;;;;;11.50;5.70;;;15.80;99.90;;;;;;5044330;28;20512;-76
2023/05/29 06:43:02;;;;;;;11.40;6.28;;;15.80;99.90;;;;;;5044847;28;20041;-75
2023/05/29 06:45:28;;;;;;;11.07;6.05;;;15.80;99.90;;;;;;5046071;28;20168;-75
2023/05/29 06:47:55;;;;;;;11.85;6.10;;;15.90;99.90;;;;;;5046295;28;20076;-76
2023/05/29 06:50:22;;;;;;;12.57;6.13;;;15.90;99.90;;;;;;5045619;28;20091;-76
2023/05/29 06:52:49;;;;;;;11.20;5.95;;;15.90;99.90;;;;;;5044725;28;20466;-76
2023/05/29 06:55:16;;;;;;;11.10;6.10;;;15.90;99.90;;;;;;5046593;28;20103;-75
2023/05/29 06:57:43;;;;;;;13.13;6.15;;;16.00;99.90;;;;;;5045033;28;20041;-76
2023/05/29 07:00:10;;;;;;;16.95;6.55;;;16.00;99.90;;;;;;5044790;28;20041;-75
2023/05/29 07:02:37;;;;;;;9.00;5.47;;;16.00;99.90;;;;;;5050170;28;20045;-76
2023/05/29 07:05:05;;;;;;;13.00;6.03;;;16.10;99.90;;;;;;5050240;28;20044;-76
2023/05/29 07:07:32;;;;;;;13.50;5.97;;;16.00;99.90;;;;;;5047999;28;20460;-76
2023/05/29 07:09:58;;;;;;;7.90;5.32;;;16.10;99.90;;;;;;5050524;28;20048;-76
2023/05/29 07:12:26;;;;;;;15.48;5.97;;;16.10;99.90;;;;;;5050373;28;20056;-76
2023/05/29 07:14:53;;;;;;;13.88;6.05;;;16.20;99.90;;;;;;5049219;28;20131;-76
2023/05/29 07:17:19;;;;;;;9.98;5.47;;;16.20;99.90;;;;;;5044010;28;20136;-76
2023/05/29 07:19:49;;;;;;;11.40;6.43;;;16.30;99.90;;;;;;5046061;28;20083;-76
2023/05/29 07:22:16;;;;;;;10.63;6.20;;;16.30;99.90;;;;;;5046216;28;20072;-76
2023/05/29 07:24:42;;;;;;;11.52;6.13;;;16.40;99.90;;;;;;5038528;28;20072;-75
2023/05/29 07:27:09;;;;;;;11.73;5.55;;;16.40;99.90;;;;;;5046885;28;20049;-76
2023/05/29 07:29:36;;;;;;;11.27;5.95;;;16.50;99.90;;;;;;5045791;28;20132;-76
2023/05/29 07:32:03;;;;;;;14.18;6.00;;;16.50;99.90;;;;;;5044138;28;20070;-75
2023/05/29 07:34:29;;;;;;;14.80;5.85;;;16.50;99.90;;;;;;5049831;28;20398;-76
2023/05/29 07:36:59;;;;;;;9.23;5.85;;;16.50;99.90;;;;;;5049018;28;20098;-76
2023/05/29 07:39:27;;;;;;;11.52;5.63;;;16.60;99.90;;;;;;5048910;28;20546;-76
2023/05/29 07:41:54;;;;;;;9.30;5.28;;;16.70;99.90;;;;;;5047700;28;20041;-76
2023/05/29 07:44:20;;;;;;;12.10;6.32;;;16.70;99.90;;;;;;5048830;28;20128;-76
2023/05/29 07:46:47;;;;;;;11.25;5.97;;;16.80;99.90;;;;;;5047679;28;20478;-76
2023/05/29 07:49:15;;;;;;;12.10;6.38;;;16.90;99.90;;;;;;5042884;28;20081;-75
2023/05/29 07:51:42;;;;;;;12.52;6.15;;;17.00;99.90;;;;;;5045563;28;20083;-76
2023/05/29 07:54:08;;;;;;;10.57;6.20;;;17.00;99.90;;;;;;5049753;28;20475;-76
2023/05/29 07:56:35;;;;;;;13.10;5.65;;;17.10;99.90;;;;;;5049781;28;20045;-76
2023/05/29 07:59:03;;;;;;;9.80;5.28;;;17.20;99.90;;;;;;5050350;28;20048;-76
2023/05/29 08:01:30;;;;;;;8.85;5.40;;;17.30;99.90;;;;;;5065254;28;20456;-76
2023/05/29 08:03:56;;;;;;;8.57;5.43;;;17.30;99.90;;;;;;5046344;28;20461;-76
2023/05/29 08:06:23;;;;;;;9.68;5.22;;;17.30;99.90;;;;;;5047164;28;20052;-76
2023/05/29 08:08:51;;;;;;;13.65;5.20;;;17.40;99.90;;;;;;5051046;28;20053;-77
2023/05/29 08:11:19;;;;;;;9.20;4.90;;;17.50;99.90;;;;;;5049836;28;20101;-76
2023/05/29 08:13:46;;;;;;;16.38;6.85;;;17.60;99.90;;;;;;5048679;28;20107;-76
2023/05/29 08:16:14;;;;;;;10.63;5.43;;;17.70;99.90;;;;;;5048883;28;20049;-77
2023/05/29 08:18:41;;;;;;;10.90;5.00;;;17.70;99.90;;;;;;5049651;28;20128;-76
2023/05/29 08:21:09;;;;;;;7.93;4.88;;;17.80;99.90;;;;;;5042719;28;20415;-76
2023/05/29 08:23:35;;;;;;;10.50;4.78;;;17.90;99.90;;;;;;5050861;28;20053;-76
2023/05/29 08:26:03;;;;;;;9.48;4.90;;;18.00;99.90;;;;;;5047963;28;20044;-76
2023/05/29 08:28:30;;;;;;;9.77;4.35;;;18.10;99.90;;;;;;5049733;28;20049;-76
2023/05/29 08:30:56;;;;;;;7.00;4.30;;;18.20;99.90;;;;;;5051765;28;20585;-76
2023/05/29 08:33:23;;;;;;;12.05;4.70;;;18.30;99.90;;;;;;5050229;28;20535;-76
2023/05/29 08:35:50;;;;;;;9.13;4.97;;;18.40;99.90;;;;;;5050261;28;20124;-76
2023/05/29 08:38:16;;;;;;;8.02;4.15;;;18.40;99.90;;;;;;5050989;28;20045;-76
2023/05/29 08:40:43;;;;;;;7.90;4.60;;;18.40;99.90;;;;;;5050839;28;20536;-76
2023/05/29 08:43:17;;;;;;;8.65;5.05;;;18.50;99.90;;;;;;5051200;28;20068;-75
2023/05/29 08:45:44;;;;;;;6.25;4.28;;;18.50;99.90;;;;;;5049810;28;20137;-76
2023/05/29 08:48:12;;;;;;;10.23;4.50;;;18.60;99.90;;;;;;5044712;28;20136;-76
2023/05/29 08:50:47;;;;;;;9.32;5.20;;;18.60;99.90;;;;;;5050888;28;20056;-77
2023/05/29 08:53:16;;;;;;;7.97;4.82;;;18.70;99.90;;;;;;5051176;28;20056;-75
2023/05/29 08:55:43;;;;;;;10.40;4.67;;;18.80;99.90;;;;;;5066724;28;20045;-75
2023/05/29 08:58:11;;;;;;;11.98;4.82;;;18.90;99.90;;;;;;5050779;28;20049;-75
2023/05/29 09:00:40;;;;;;;10.82;4.85;;;18.90;99.90;;;;;;5051296;28;20128;-76
2023/05/29 09:03:07;;;;;;;11.32;4.60;;;19.00;99.90;;;;;;5048391;28;20045;-76
2023/05/29 09:05:39;;;;;;;11.32;4.13;;;19.00;99.90;;;;;;5049210;28;20465;-76
2023/05/29 09:08:08;;;;;;;9.10;4.78;;;19.10;99.90;;;;;;5045407;28;20088;-76
2023/05/29 09:10:35;;;;;;;7.47;4.75;;;19.20;99.90;;;;;;5049289;28;20072;-76
2023/05/29 09:13:05;;;;;;;9.82;4.75;;;19.20;99.90;;;;;;5049833;28;20053;-76
2023/05/29 09:15:31;;;;;;;9.35;4.60;;;19.30;99.90;;;;;;5049196;28;20132;-76
2023/05/29 09:17:58;;;;;;;9.70;4.97;;;19.40;99.90;;;;;;5047204;28;20508;-76
2023/05/29 09:20:27;;;;;;;7.00;4.25;;;19.50;99.90;;;;;;5049055;28;20045;-76
2023/05/29 09:23:06;;;;;;;8.88;5.13;;;19.50;99.90;;;;;;5050928;28;20523;-76
2023/05/29 09:25:35;;;;;;;11.82;5.05;;;19.60;99.90;;;;;;5048701;28;20111;-76
2023/05/29 09:28:04;;;;;;;7.82;4.60;;;19.60;99.90;;;;;;5048345;28;20143;-76
2023/05/29 09:30:41;;;;;;;7.28;4.32;;;19.70;99.90;;;;;;5050984;28;20048;-76
2023/05/29 09:33:10;;;;;;;9.10;4.65;;;19.80;99.90;;;;;;5040881;28;20080;-76
2023/05/29 09:35:38;;;;;;;10.57;4.38;;;19.80;99.90;;;;;;5049889;28;20088;-76
2023/05/29 09:38:06;;;;;;;7.35;4.35;;;19.90;99.90;;;;;;5044513;28;20497;-76
2023/05/29 09:40:34;;;;;;;9.95;4.40;;;19.90;99.90;;;;;;5049900;28;20048;-76
2023/05/29 09:43:12;;;;;;;9.73;4.13;;;19.90;99.90;;;;;;5049119;28;20049;-76
2023/05/29 09:45:41;;;;;;;6.88;4.18;;;20.00;99.90;;;;;;5043098;28;20045;-76
2023/05/29 09:48:12;;;;;;;9.35;4.13;;;20.10;99.90;;;;;;5045691;28;20148;-76
2023/05/29 09:50:41;;;;;;;7.97;4.50;;;20.20;99.90;;;;;;5049033;28;20059;-76
2023/05/29 09:53:17;;;;;;;9.18;4.88;;;20.30;99.90;;;;;;5048317;28;20076;-76
2023/05/29 09:55:46;;;;;;;8.68;4.43;;;20.40;99.90;;;;;;5050254;28;20503;-76
2023/05/29 09:58:14;;;;;;;7.75;4.45;;;20.40;99.90;;;;;;5044949;28;20049;-76
2023/05/29 10:00:45;;;;;;;12.77;4.10;;;20.40;99.90;;;;;;5047247;28;20517;-76
2023/05/29 10:03:12;;;;;;;8.88;3.65;;;20.60;99.90;;;;;;5047610;28;20107;-76
2023/05/29 10:05:40;;;;;;;8.52;4.53;;;20.60;99.90;;;;;;5050335;28;20080;-76
2023/05/29 10:08:14;;;;;;;6.43;3.70;;;20.70;99.90;;;;;;5043823;28;20132;-76
2023/05/29 10:10:45;;;;;;;9.25;4.00;;;20.80;99.90;;;;;;5049764;28;20483;-76
2023/05/29 10:13:13;;;;;;;9.98;4.72;;;20.90;99.90;;;;;;5049022;28;20564;-76
2023/05/29 10:15:42;;;;;;;8.93;4.18;;;20.90;99.90;;;;;;5047060;28;20108;-76
2023/05/29 10:18:20;;;;;;;6.72;3.65;;;21.00;99.90;;;;;;5044688;28;20076;-76
2023/05/29 10:20:52;;;;;;;10.32;4.05;;;21.10;99.90;;;;;;5046756;28;20132;-76
2023/05/29 10:23:24;;;;;;;7.40;3.65;;;21.10;99.90;;;;;;5047558;28;20147;-76
2023/05/29 10:26:01;;;;;;;8.07;4.00;;;21.20;99.90;;;;;;5050206;28;20132;-76
2023/05/29 10:28:29;;;;;;;8.38;3.83;;;21.20;99.90;;;;;;5062780;28;20061;-76
2023/05/29 10:31:09;;;;;;;5.38;3.78;;;21.30;99.90;;;;;;5047401;28;20124;-76
2023/05/29 10:34:04;;;;;;;9.10;4.15;;;21.40;99.90;;;;;;5040170;28;20099;-76
2023/05/29 10:36:38;;;;;;;6.22;3.63;;;21.50;99.90;;;;;;5049478;28;20080;-76
2023/05/29 10:39:05;;;;;;;10.23;4.07;;;21.60;99.90;;;;;;5046566;28;20497;-76
2023/05/29 10:41:33;;;;;;;8.93;4.25;;;21.70;99.90;;;;;;5049057;28;20048;-76
2023/05/29 10:44:01;;;;;;;8.13;4.60;;;21.70;99.90;;;;;;5047773;28;20041;-76
2023/05/29 10:46:44;;;;;;;8.52;4.20;;;21.80;99.90;;;;;;5044930;28;20128;-76
2023/05/29 10:49:21;;;;;;;5.72;3.70;;;21.80;99.90;;;;;;5046595;28;20055;-76
2023/05/29 10:51:48;;;;;;;6.20;3.83;;;21.80;99.90;;;;;;5044863;28;20045;-76
2023/05/29 10:54:18;;;;;;;5.15;3.97;;;21.90;99.90;;;;;;5049861;28;20068;-76
2023/05/29 10:56:52;;;;;;;8.93;4.35;;;22.00;99.90;;;;;;5048856;28;20045;-75
2023/05/29 10:59:19;;;;;;;6.05;3.78;;;22.10;99.90;;;;;;5046830;28;20424;-76
2023/05/29 11:01:46;;;;;;;6.28;3.88;;;22.20;99.90;;;;;;5046510;28;20536;-76
2023/05/29 11:04:21;;;;;;;9.30;3.80;;;22.30;99.90;;;;;;5047617;28;20045;-76
2023/05/29 11:06:48;;;;;;;8.32;3.63;;;22.30;99.90;;;;;;5042696;28;20119;-76
2023/05/29 11:09:37;;;;;;;6.78;3.45;;;22.30;99.90;;;;;;5045602;28;20083;-75
2023/05/29 11:12:35;;;;;;;8.47;3.97;;;22.40;99.90;;;;;;5050834;28;20060;-77
2023/05/29 11:15:07;;;;;;;7.20;4.22;;;22.50;99.90;;;;;;5050388;28;20136;-76
2023/05/29 11:17:37;;;;;;;8.43;3.72;;;22.50;99.90;;;;;;5047312;28;20041;-76
2023/05/29 11:20:33;;;;;;;7.22;3.65;;;22.60;99.90;;;;;;5050191;28;20041;-76
2023/05/29 11:23:00;;;;;;;7.95;3.75;;;22.70;99.90;;;;;;5032111;28;20045;-76
2023/05/29 11:25:34;;;;;;;8.40;3.63;;;22.80;99.90;;;;;;5044153;28;20172;-75
2023/05/29 11:28:01;;;;;;;7.13;3.63;;;22.80;99.90;;;;;;5047066;28;20049;-76
2023/05/29 11:30:27;;;;;;;6.20;3.75;;;22.90;99.90;;;;;;5051317;28;20091;-76
2023/05/29 11:32:59;;;;;;;7.15;4.13;;;23.00;99.90;;;;;;5045009;28;20144;-76
2023/05/29 11:35:29;;;;;;;9.27;3.95;;;23.00;99.90;;;;;;5038714;28;20071;-76
2023/05/29 11:37:57;;;;;;;5.68;3.42;;;23.00;99.90;;;;;;5057935;28;20455;-78
2023/05/29 11:40:24;;;;;;;8.38;3.88;;;23.20;99.90;;;;;;5054258;28;20079;-79
2023/05/29 11:42:51;;;;;;;10.02;3.85;;;23.10;99.90;;;;;;5054081;28;20094;-78
2023/05/29 11:45:20;;;;;;;5.95;4.30;;;23.20;99.90;;;;;;5054566;28;20772;-78
2023/05/29 11:47:51;;;;;;;5.50;3.75;;;23.30;99.90;;;;;;5053756;28;20049;-78
2023/05/29 11:50:20;;;;;;;5.60;3.80;;;23.30;99.90;;;;;;5054561;28;20064;-78
2023/05/29 11:52:47;;;;;;;7.43;3.78;;;23.30;99.90;;;;;;5054430;28;20080;-79
2023/05/29 11:55:14;;;;;;;7.63;3.67;;;23.40;99.90;;;;;;5055738;28;20117;-79
2023/05/29 11:57:40;;;;;;;10.90;4.00;;;23.50;99.90;;;;;;5053974;28;20043;-79
2023/05/29 12:00:12;;;;;;;6.97;3.08;;;23.50;99.90;;;;;;5061723;28;20148;-79
2023/05/29 12:02:39;;;;;;;6.20;3.83;;;23.60;99.90;;;;;;5051942;28;20059;-78
2023/05/29 12:05:07;;;;;;;8.35;4.10;;;23.60;99.90;;;;;;5046254;28;20045;-79
2023/05/29 12:07:35;;;;;;;6.90;3.63;;;23.60;99.90;;;;;;5054442;28;20044;-78
2023/05/29 12:10:11;;;;;;;8.02;4.03;;;23.60;99.90;;;;;;5054491;28;20563;-79
2023/05/29 12:12:39;;;;;;;6.28;3.88;;;23.70;99.90;;;;;;5054630;28;20053;-78
2023/05/29 12:15:08;;;;;;;9.93;3.45;;;23.70;99.90;;;;;;5051160;28;20072;-77
2023/05/29 12:17:35;;;;;;;8.93;3.88;;;23.80;99.90;;;;;;5046948;28;20049;-78
2023/05/29 12:20:06;;;;;;;10.07;3.70;;;23.80;99.90;;;;;;5050335;28;20044;-78
2023/05/29 12:22:35;;;;;;;5.03;3.30;;;23.80;99.90;;;;;;5046637;28;20044;-78
2023/05/29 12:25:12;;;;;;;8.02;3.42;;;23.90;99.90;;;;;;5051130;28;20038;-78
2023/05/29 12:27:42;;;;;;;6.07;3.75;;;23.90;99.90;;;;;;5050153;28;20045;-80
2023/05/29 12:30:11;;;;;;;6.70;4.20;;;23.90;99.90;;;;;;5052140;28;20420;-75
2023/05/29 12:32:45;;;;;;;10.18;3.85;;;24.00;99.90;;;;;;5048700;28;20045;-75
2023/05/29 12:35:42;;;;;;;12.05;4.03;;;23.90;99.90;;;;;;5048488;28;20552;-75
2023/05/29 12:38:08;;;;;;;8.65;4.47;;;24.00;99.90;;;;;;5030060;28;20452;-76
2023/05/29 12:40:38;;;;;;;7.85;3.65;;;24.00;99.90;;;;;;5050359;28;20064;-75
2023/05/29 12:43:09;;;;;;;8.60;4.40;;;24.00;99.90;;;;;;5047090;28;20588;-76
2023/05/29 12:45:35;;;;;;;6.25;4.03;;;24.10;99.90;;;;;;5051646;28;20125;-75
2023/05/29 12:48:07;;;;;;;6.85;3.58;;;24.10;99.90;;;;;;5047511;28;20125;-76
2023/05/29 12:50:37;;;;;;;6.50;4.03;;;24.10;99.90;;;;;;5050139;28;20076;-83